createdAt,value
2022-10-02T00:00:20.924Z,100.00
2022-10-02T00:02:55.395Z,100.00
2022-10-02T00:05:36.854Z,100.00
2022-10-02T00:08:12.265Z,100.00
2022-10-02T00:10:44.840Z,100.00
2022-10-02T00:13:17.228Z,100.00
2022-10-02T00:15:44.627Z,100.00
2022-10-02T00:18:15.268Z,100.00
2022-10-02T00:20:54.471Z,100.00
2022-10-02T00:23:35.858Z,100.00
2022-10-02T00:26:11.899Z,100.00
2022-10-02T00:28:52.239Z,100.00
2022-10-02T00:32:04.251Z,100.00
2022-10-02T00:34:49.611Z,100.00
2022-10-02T00:37:30.065Z,100.00
2022-10-02T00:40:15.851Z,100.00
2022-10-02T00:43:17.571Z,100.00
2022-10-02T00:45:59.792Z,100.00
2022-10-02T00:48:44.775Z,100.00
2022-10-02T00:51:26.440Z,100.00
2022-10-02T00:54:08.985Z,100.00
2022-10-02T00:56:58.929Z,100.00
2022-10-02T00:59:34.695Z,100.00
2022-10-02T01:02:11.719Z,100.00
2022-10-02T01:04:39.670Z,100.00
2022-10-02T01:07:09.187Z,100.00
2022-10-02T01:09:36.947Z,100.00
2022-10-02T01:12:03.862Z,100.00
2022-10-02T01:14:35.768Z,100.00
2022-10-02T01:17:03.444Z,100.00
2022-10-02T01:19:40.708Z,100.00
2022-10-02T01:22:25.692Z,100.00
2022-10-02T01:25:01.622Z,100.00
2022-10-02T01:27:28.478Z,100.00
2022-10-02T01:30:01.472Z,100.00
2022-10-02T01:32:29.305Z,100.00
2022-10-02T01:34:57.074Z,100.00
2022-10-02T01:37:26.658Z,100.00
2022-10-02T01:39:53.544Z,100.00
2022-10-02T01:42:21.283Z,100.00
2022-10-02T01:44:48.456Z,100.00
2022-10-02T01:47:19.866Z,100.00
2022-10-02T01:50:09.449Z,100.00
2022-10-02T01:52:57.747Z,100.00
2022-10-02T01:55:37.333Z,100.00
2022-10-02T01:58:16.623Z,100.00
2022-10-02T02:00:56.395Z,100.00
2022-10-02T02:03:51.299Z,100.00
2022-10-02T02:06:32.475Z,100.00
2022-10-02T02:09:30.619Z,100.00
2022-10-02T02:12:22.306Z,100.00
2022-10-02T02:14:58.774Z,100.00
2022-10-02T02:17:38.786Z,100.00
2022-10-02T02:20:09.157Z,100.00
2022-10-02T02:22:37.129Z,100.00
2022-10-02T02:25:08.782Z,100.00
2022-10-02T02:27:41.726Z,100.00
2022-10-02T02:30:12.055Z,100.00
2022-10-02T02:33:12.435Z,100.00
2022-10-02T02:35:42.672Z,100.00
2022-10-02T02:38:24.867Z,100.00
2022-10-02T02:40:54.146Z,100.00
2022-10-02T02:43:43.358Z,100.00
2022-10-02T02:46:19.849Z,100.00
2022-10-02T02:48:51.286Z,100.00
2022-10-02T02:51:22.558Z,100.00
2022-10-02T02:53:53.907Z,100.00
2022-10-02T02:56:21.814Z,100.00
2022-10-02T02:58:55.294Z,100.00
2022-10-02T03:01:22.646Z,100.00
2022-10-02T03:03:49.509Z,100.00
2022-10-02T03:06:16.256Z,100.00
2022-10-02T03:08:43.750Z,100.00
2022-10-02T03:11:48.225Z,100.00
2022-10-02T03:14:17.969Z,100.00
2022-10-02T03:17:03.303Z,100.00
2022-10-02T03:19:51.366Z,100.00
2022-10-02T03:22:57.290Z,100.00
2022-10-02T03:25:31.905Z,100.00
2022-10-02T03:28:54.428Z,100.00
2022-10-02T03:31:20.336Z,100.00
2022-10-02T03:33:47.721Z,100.00
2022-10-02T03:36:17.899Z,100.00
2022-10-02T03:38:53.246Z,100.00
2022-10-02T03:41:27.891Z,100.00
2022-10-02T03:43:55.044Z,100.00
2022-10-02T03:46:21.947Z,100.00
2022-10-02T03:48:48.866Z,100.00
2022-10-02T03:51:15.973Z,100.00
2022-10-02T03:53:42.842Z,100.00
2022-10-02T03:56:17.938Z,100.00
2022-10-02T03:58:47.304Z,100.00
2022-10-02T04:01:22.901Z,100.00
2022-10-02T04:04:11.612Z,100.00
2022-10-02T04:06:49.090Z,100.00
2022-10-02T04:09:53.733Z,100.00
2022-10-02T04:12:29.635Z,100.00
2022-10-02T04:15:25.259Z,100.00
2022-10-02T04:18:05.504Z,100.00
2022-10-02T04:21:00.695Z,100.00
2022-10-02T04:23:34.454Z,100.00
2022-10-02T04:26:08.693Z,100.00
2022-10-02T04:28:39.759Z,100.00
2022-10-02T04:31:12.672Z,100.00
2022-10-02T04:33:39.692Z,100.00
2022-10-02T04:36:30.576Z,100.00
2022-10-02T04:39:07.256Z,100.00
2022-10-02T04:41:40.233Z,100.00
2022-10-02T04:44:42.254Z,100.00
2022-10-02T04:47:24.647Z,100.00
2022-10-02T04:50:11.120Z,100.00
2022-10-02T04:53:01.700Z,100.00
2022-10-02T04:55:40.644Z,100.00
2022-10-02T04:58:38.072Z,100.00
2022-10-02T05:01:20.413Z,100.00
2022-10-02T05:04:11.933Z,100.00
2022-10-02T05:06:49.177Z,100.00
2022-10-02T05:09:29.601Z,100.00
2022-10-02T05:12:05.343Z,100.00
2022-10-02T05:14:38.985Z,100.00
2022-10-02T05:17:07.662Z,100.00
2022-10-02T05:19:43.753Z,100.00
2022-10-02T05:22:19.567Z,100.00
2022-10-02T05:24:55.361Z,100.00
2022-10-02T05:27:52.457Z,100.00
2022-10-02T05:30:20.011Z,100.00
2022-10-02T05:33:09.176Z,100.00
2022-10-02T05:36:07.358Z,100.00
2022-10-02T05:38:59.137Z,100.00
2022-10-02T05:42:13.683Z,100.00
2022-10-02T05:44:43.336Z,100.00
2022-10-02T05:47:19.924Z,100.00
2022-10-02T05:49:57.207Z,100.00
2022-10-02T05:52:30.130Z,100.00
2022-10-02T05:55:01.289Z,100.00
2022-10-02T05:57:34.746Z,100.00
2022-10-02T06:00:23.174Z,100.00
2022-10-02T06:02:53.157Z,100.00
2022-10-02T06:05:34.652Z,100.00
2022-10-02T06:08:04.022Z,100.00
2022-10-02T06:10:42.599Z,100.00
2022-10-02T06:13:18.775Z,100.00
2022-10-02T06:16:08.326Z,100.00
2022-10-02T06:18:36.552Z,90.22
2022-10-02T06:21:09.601Z,77.70
2022-10-02T06:23:43.410Z,67.68
2022-10-02T06:26:24.309Z,63.86
2022-10-02T06:28:54.213Z,57.75
2022-10-02T06:31:26.405Z,55.04
2022-10-02T06:33:53.558Z,53.37
2022-10-02T06:36:30.165Z,50.92
2022-10-02T06:39:22.109Z,49.25
2022-10-02T06:42:26.847Z,47.95
2022-10-02T06:45:10.345Z,46.24
2022-10-02T06:48:02.182Z,45.42
2022-10-02T06:51:09.777Z,44.38
2022-10-02T06:54:04.113Z,45.24
2022-10-02T06:56:54.350Z,44.22
2022-10-02T06:59:30.434Z,45.59
2022-10-02T07:02:17.431Z,45.14
2022-10-02T07:05:16.559Z,47.54
2022-10-02T07:07:58.703Z,48.23
2022-10-02T07:10:32.855Z,46.06
2022-10-02T07:13:09.439Z,47.94
2022-10-02T07:15:57.841Z,46.98
2022-10-02T07:18:50.606Z,46.29
2022-10-02T07:21:52.155Z,45.97
2022-10-02T07:24:36.449Z,45.66
2022-10-02T07:27:12.398Z,50.13
2022-10-02T07:29:57.657Z,47.24
2022-10-02T07:32:39.097Z,49.42
2022-10-02T07:35:22.049Z,50.16
2022-10-02T07:38:45.653Z,48.50
2022-10-02T07:41:23.914Z,50.99
2022-10-02T07:44:00.873Z,49.07
2022-10-02T07:46:43.235Z,48.25
2022-10-02T07:49:22.207Z,45.31
2022-10-02T07:52:04.671Z,46.58
2022-10-02T07:54:49.613Z,47.10
2022-10-02T07:57:39.834Z,49.09
2022-10-02T08:00:14.204Z,51.17
2022-10-02T08:02:55.163Z,49.04
2022-10-02T08:05:28.269Z,49.51
2022-10-02T08:08:00.286Z,50.11
2022-10-02T08:10:31.731Z,50.99
2022-10-02T08:13:04.794Z,51.65
2022-10-02T08:15:35.701Z,51.06
2022-10-02T08:18:35.354Z,53.28
2022-10-02T08:21:06.759Z,50.11
2022-10-02T08:23:56.841Z,52.61
2022-10-02T08:26:34.493Z,52.08
2022-10-02T08:29:15.371Z,50.48
2022-10-02T08:31:42.301Z,52.67
2022-10-02T08:34:26.150Z,53.62
2022-10-02T08:37:21.890Z,53.14
2022-10-02T08:39:51.764Z,53.32
2022-10-02T08:42:41.528Z,53.18
2022-10-02T08:45:47.743Z,54.07
2022-10-02T08:48:55.323Z,52.78
2022-10-02T08:51:39.895Z,50.36
2022-10-02T08:54:54.593Z,54.39
2022-10-02T08:57:39.698Z,57.40
2022-10-02T09:00:09.585Z,56.33
2022-10-02T09:03:13.047Z,54.31
2022-10-02T09:06:04.904Z,56.50
2022-10-02T09:08:51.239Z,56.75
2022-10-02T09:11:51.965Z,57.27
2022-10-02T09:14:45.115Z,59.40
2022-10-02T09:17:45.201Z,55.19
2022-10-02T09:20:18.033Z,48.83
2022-10-02T09:23:25.653Z,47.90
2022-10-02T09:25:54.283Z,51.17
2022-10-02T09:28:39.675Z,53.20
2022-10-02T09:31:30.224Z,53.65
2022-10-02T09:34:03.135Z,51.68
2022-10-02T09:37:04.979Z,53.63
2022-10-02T09:39:44.165Z,54.63
2022-10-02T09:42:23.184Z,57.45
2022-10-02T09:45:12.526Z,56.45
2022-10-02T09:48:01.478Z,58.52
2022-10-02T09:50:41.030Z,55.74
2022-10-02T09:53:32.634Z,51.61
2022-10-02T09:56:23.338Z,52.52
2022-10-02T09:59:27.665Z,53.89
2022-10-02T10:02:28.214Z,52.52
2022-10-02T10:05:13.753Z,53.30
2022-10-02T10:07:43.437Z,52.83
2022-10-02T10:10:18.842Z,50.82
2022-10-02T10:13:02.318Z,54.23
2022-10-02T10:16:08.130Z,52.55
2022-10-02T10:18:39.411Z,55.48
2022-10-02T10:21:29.390Z,52.28
2022-10-02T10:24:41.405Z,53.72
2022-10-02T10:27:38.893Z,50.98
2022-10-02T10:30:16.357Z,52.52
2022-10-02T10:33:12.636Z,51.54
2022-10-02T10:35:46.943Z,52.58
2022-10-02T10:38:52.158Z,53.36
2022-10-02T10:41:42.777Z,54.89
2022-10-02T10:44:31.673Z,55.23
2022-10-02T10:47:38.660Z,52.88
2022-10-02T10:50:17.529Z,52.99
2022-10-02T10:53:05.625Z,52.31
2022-10-02T10:55:40.094Z,51.44
2022-10-02T10:58:21.266Z,53.38
2022-10-02T11:01:11.032Z,53.06
2022-10-02T11:03:59.812Z,52.27
2022-10-02T11:06:45.925Z,51.64
2022-10-02T11:09:22.181Z,52.80
2022-10-02T11:12:12.817Z,53.47
2022-10-02T11:14:43.880Z,53.26
2022-10-02T11:17:24.470Z,53.86
2022-10-02T11:20:19.256Z,53.19
2022-10-02T11:23:07.842Z,52.52
2022-10-02T11:26:12.695Z,54.36
2022-10-02T11:29:17.133Z,53.14
2022-10-02T11:31:57.985Z,52.16
2022-10-02T11:35:03.633Z,53.45
2022-10-02T11:37:46.408Z,54.85
2022-10-02T11:40:26.631Z,51.94
2022-10-02T11:43:31.714Z,52.18
2022-10-02T11:46:21.605Z,55.71
2022-10-02T11:48:56.693Z,57.66
2022-10-02T11:51:46.373Z,55.08
2022-10-02T11:54:44.793Z,54.79
2022-10-02T11:57:50.966Z,55.51
2022-10-02T12:00:37.040Z,57.55
2022-10-02T12:03:12.833Z,57.98
2022-10-02T12:06:04.346Z,57.72
2022-10-02T12:08:53.318Z,58.69
2022-10-02T12:11:37.737Z,58.62
2022-10-02T12:14:08.393Z,60.66
2022-10-02T12:16:44.859Z,60.39
2022-10-02T12:19:18.303Z,60.94
2022-10-02T12:22:18.573Z,63.35
2022-10-02T12:25:20.427Z,64.30
2022-10-02T12:28:32.540Z,65.11
2022-10-02T12:31:10.821Z,64.56
2022-10-02T12:33:54.241Z,65.41
2022-10-02T12:36:44.870Z,67.04
2022-10-02T12:39:26.385Z,65.89
2022-10-02T12:42:02.447Z,65.34
2022-10-02T12:44:39.255Z,64.02
2022-10-02T12:47:23.452Z,63.41
2022-10-02T12:49:58.350Z,60.26
2022-10-02T12:52:28.821Z,62.97
2022-10-02T12:54:55.494Z,64.04
2022-10-02T12:57:55.340Z,62.04
2022-10-02T13:00:31.237Z,63.96
2022-10-02T13:03:35.798Z,61.60
2022-10-02T13:06:14.943Z,62.32
2022-10-02T13:08:48.406Z,62.32
2022-10-02T13:11:47.659Z,61.49
2022-10-02T13:14:17.991Z,62.16
2022-10-02T13:16:45.108Z,62.10
2022-10-02T13:19:30.523Z,61.06
2022-10-02T13:22:03.794Z,62.56
2022-10-02T13:25:01.399Z,61.80
2022-10-02T13:27:38.106Z,62.41
2022-10-02T13:30:17.863Z,61.26
2022-10-02T13:33:06.025Z,62.26
2022-10-02T13:36:07.837Z,61.82
2022-10-02T13:38:37.798Z,62.45
2022-10-02T13:41:16.722Z,63.27
2022-10-02T13:43:57.747Z,63.53
2022-10-02T13:46:49.142Z,64.27
2022-10-02T13:50:14.116Z,65.97
2022-10-02T13:52:52.023Z,64.91
2022-10-02T13:55:22.974Z,65.53
2022-10-02T13:58:20.624Z,63.98
2022-10-02T14:00:59.331Z,64.89
2022-10-02T14:03:49.054Z,65.50
2022-10-02T14:06:27.191Z,63.24
2022-10-02T14:09:03.473Z,64.17
2022-10-02T14:11:38.497Z,63.67
2022-10-02T14:14:11.885Z,63.48
2022-10-02T14:16:44.758Z,64.76
2022-10-02T14:19:29.799Z,65.13
2022-10-02T14:22:15.270Z,65.23
2022-10-02T14:25:00.944Z,65.21
2022-10-02T14:27:53.712Z,67.09
2022-10-02T14:30:29.295Z,67.23
2022-10-02T14:33:08.294Z,69.53
2022-10-02T14:35:52.559Z,69.36
2022-10-02T14:38:26.199Z,70.51
2022-10-02T14:40:59.267Z,71.25
2022-10-02T14:43:50.255Z,70.79
2022-10-02T14:46:36.012Z,70.27
2022-10-02T14:49:22.834Z,67.96
2022-10-02T14:52:08.295Z,69.31
2022-10-02T14:55:01.453Z,69.71
2022-10-02T14:57:47.433Z,70.07
2022-10-02T15:00:20.378Z,70.68
2022-10-02T15:03:11.751Z,70.93
2022-10-02T15:06:05.154Z,71.22
2022-10-02T15:08:40.432Z,71.48
2022-10-02T15:11:19.468Z,73.99
2022-10-02T15:13:50.465Z,76.56
2022-10-02T15:16:45.246Z,78.72
2022-10-02T15:19:27.190Z,80.49
2022-10-02T15:22:20.246Z,82.02
2022-10-02T15:25:17.907Z,82.50
2022-10-02T15:28:24.323Z,83.88
2022-10-02T15:31:03.809Z,85.92
2022-10-02T15:33:35.738Z,87.08
2022-10-02T15:36:35.455Z,86.01
2022-10-02T15:39:27.454Z,86.35
2022-10-02T15:42:08.736Z,88.24
2022-10-02T15:44:56.472Z,89.45
2022-10-02T15:47:38.214Z,90.02
2022-10-02T15:50:14.336Z,90.93
2022-10-02T15:53:11.361Z,91.77
2022-10-02T15:55:53.385Z,92.93
2022-10-02T15:58:57.334Z,95.41
2022-10-02T16:01:34.723Z,96.46
2022-10-02T16:04:19.667Z,97.11
2022-10-02T16:07:20.190Z,95.94
2022-10-02T16:10:12.106Z,96.87
2022-10-02T16:12:45.825Z,95.67
2022-10-02T16:15:31.639Z,94.94
2022-10-02T16:18:15.234Z,96.15
2022-10-02T16:21:00.722Z,96.71
2022-10-02T16:23:45.717Z,95.71
2022-10-02T16:26:24.971Z,95.81
2022-10-02T16:29:14.449Z,96.48
2022-10-02T16:32:15.744Z,94.34
2022-10-02T16:34:57.533Z,95.66
2022-10-02T16:37:29.238Z,97.90
2022-10-02T16:40:00.497Z,99.24
2022-10-02T16:42:57.825Z,97.98
2022-10-02T16:45:40.330Z,99.02
2022-10-02T16:48:19.371Z,99.55
2022-10-02T16:51:09.758Z,99.54
2022-10-02T16:53:55.590Z,98.06
2022-10-02T16:56:32.507Z,97.38
2022-10-02T16:59:16.153Z,98.82
2022-10-02T17:02:05.832Z,100.00
2022-10-02T17:05:06.549Z,99.61
2022-10-02T17:07:36.394Z,100.00
2022-10-02T17:10:15.510Z,100.00
2022-10-02T17:13:07.228Z,100.00
2022-10-02T17:15:42.149Z,100.00
2022-10-02T17:18:33.386Z,100.00
2022-10-02T17:21:12.904Z,100.00
2022-10-02T17:23:44.602Z,100.00
2022-10-02T17:26:27.089Z,100.00
2022-10-02T17:29:06.821Z,100.00
2022-10-02T17:31:35.616Z,100.00
2022-10-02T17:34:17.829Z,100.00
2022-10-02T17:37:02.425Z,100.00
2022-10-02T17:39:48.100Z,100.00
2022-10-02T17:42:41.303Z,100.00
2022-10-02T17:45:32.067Z,100.00
2022-10-02T17:48:39.575Z,100.00
2022-10-02T17:51:47.543Z,100.00
2022-10-02T17:54:50.011Z,100.00
2022-10-02T17:57:34.254Z,100.00
2022-10-02T18:00:30.260Z,100.00
2022-10-02T18:03:03.426Z,100.00
2022-10-02T18:06:04.762Z,100.00
2022-10-02T18:08:57.040Z,100.00
2022-10-02T18:11:34.678Z,100.00
2022-10-02T18:14:20.780Z,100.00
2022-10-02T18:17:15.458Z,100.00
2022-10-02T18:19:42.465Z,100.00
2022-10-02T18:22:24.470Z,100.00
2022-10-02T18:25:11.900Z,100.00
2022-10-02T18:28:17.587Z,100.00
2022-10-02T18:31:03.622Z,100.00
2022-10-02T18:33:49.487Z,100.00
2022-10-02T18:36:25.416Z,100.00
2022-10-02T18:39:13.254Z,100.00
2022-10-02T18:42:19.713Z,100.00
2022-10-02T18:44:58.335Z,100.00
2022-10-02T18:47:50.890Z,100.00
2022-10-02T18:50:29.239Z,100.00
2022-10-02T18:53:27.123Z,100.00
2022-10-02T18:56:13.319Z,100.00
2022-10-02T18:58:51.630Z,100.00
2022-10-02T19:01:46.455Z,100.00
2022-10-02T19:04:22.229Z,100.00
2022-10-02T19:06:53.404Z,100.00
2022-10-02T19:09:24.854Z,100.00
2022-10-02T19:12:16.120Z,100.00
2022-10-02T19:14:47.686Z,100.00
2022-10-02T19:17:26.094Z,100.00
2022-10-02T19:19:54.093Z,100.00
2022-10-02T19:22:23.632Z,100.00
2022-10-02T19:24:54.403Z,100.00
2022-10-02T19:27:29.983Z,100.00
2022-10-02T19:29:59.352Z,100.00
2022-10-02T19:32:41.241Z,100.00
2022-10-02T19:35:15.259Z,100.00
2022-10-02T19:37:43.327Z,100.00
2022-10-02T19:40:21.963Z,100.00
2022-10-02T19:42:56.006Z,100.00
2022-10-02T19:45:25.608Z,100.00
2022-10-02T19:48:05.071Z,100.00
2022-10-02T19:50:41.372Z,100.00
2022-10-02T19:53:29.853Z,100.00
2022-10-02T19:56:01.505Z,100.00
2022-10-02T19:58:34.634Z,100.00
2022-10-02T20:01:02.170Z,100.00
2022-10-02T20:03:30.115Z,100.00
2022-10-02T20:06:01.180Z,100.00
2022-10-02T20:08:36.472Z,100.00
2022-10-02T20:11:15.817Z,100.00
2022-10-02T20:13:48.477Z,100.00
2022-10-02T20:16:40.228Z,100.00
2022-10-02T20:19:14.000Z,99.38
2022-10-02T20:21:48.866Z,100.00
2022-10-02T20:24:22.375Z,100.00
2022-10-02T20:26:51.794Z,100.00
2022-10-02T20:29:24.009Z,99.56
2022-10-02T20:31:58.459Z,100.00
2022-10-02T20:34:31.511Z,100.00
2022-10-02T20:37:05.997Z,100.00
2022-10-02T20:39:40.897Z,100.00
2022-10-02T20:42:31.901Z,100.00
2022-10-02T20:44:58.751Z,100.00
2022-10-02T20:48:16.409Z,100.00
2022-10-02T20:50:50.512Z,100.00
2022-10-02T20:53:47.422Z,100.00
2022-10-02T20:56:40.694Z,100.00
2022-10-02T20:59:45.185Z,100.00
2022-10-02T21:02:22.866Z,100.00
2022-10-02T21:05:16.159Z,100.00
2022-10-02T21:07:45.925Z,100.00
2022-10-02T21:10:37.728Z,100.00
2022-10-02T21:13:28.702Z,100.00
2022-10-02T21:16:17.393Z,100.00
2022-10-02T21:19:03.795Z,100.00
2022-10-02T21:22:06.368Z,100.00
2022-10-02T21:24:54.552Z,100.00
2022-10-02T21:27:52.014Z,100.00
2022-10-02T21:30:22.753Z,100.00
2022-10-02T21:33:11.057Z,100.00
2022-10-02T21:35:46.154Z,100.00
2022-10-02T21:38:23.583Z,100.00
2022-10-02T21:41:14.713Z,100.00
2022-10-02T21:44:21.292Z,100.00
2022-10-02T21:46:51.431Z,100.00
2022-10-02T21:49:35.730Z,100.00
2022-10-02T21:52:53.279Z,100.00
2022-10-02T21:56:01.319Z,100.00
2022-10-02T21:58:54.508Z,100.00
2022-10-02T22:01:51.838Z,100.00
2022-10-02T22:05:03.317Z,100.00
2022-10-02T22:07:54.117Z,100.00
2022-10-02T22:10:35.219Z,100.00
2022-10-02T22:13:18.222Z,100.00
2022-10-02T22:15:57.244Z,100.00
2022-10-02T22:18:53.665Z,100.00
2022-10-02T22:21:25.882Z,100.00
2022-10-02T22:24:14.720Z,100.00
2022-10-02T22:27:17.235Z,100.00
2022-10-02T22:29:49.766Z,100.00
2022-10-02T22:33:05.161Z,100.00
2022-10-02T22:35:59.219Z,100.00
2022-10-02T22:38:50.744Z,100.00
2022-10-02T22:41:27.835Z,100.00
2022-10-02T22:44:24.332Z,100.00
2022-10-02T22:46:56.737Z,100.00
2022-10-02T22:49:43.136Z,100.00
2022-10-02T22:52:21.333Z,100.00
2022-10-02T22:55:07.917Z,100.00
2022-10-02T22:57:37.722Z,100.00
2022-10-02T23:00:26.273Z,100.00
2022-10-02T23:03:01.888Z,100.00
2022-10-02T23:05:43.834Z,100.00
2022-10-02T23:08:13.670Z,100.00
2022-10-02T23:10:46.681Z,100.00
2022-10-02T23:13:21.552Z,100.00
2022-10-02T23:15:53.192Z,100.00
2022-10-02T23:18:41.445Z,100.00
2022-10-02T23:21:40.035Z,100.00
2022-10-02T23:24:56.345Z,100.00
2022-10-02T23:28:01.827Z,100.00
2022-10-02T23:30:31.134Z,100.00
2022-10-02T23:33:13.943Z,100.00
2022-10-02T23:35:52.945Z,100.00
2022-10-02T23:38:30.242Z,100.00
2022-10-02T23:41:34.200Z,100.00
2022-10-02T23:44:19.452Z,100.00
2022-10-02T23:46:49.298Z,100.00
2022-10-02T23:49:18.421Z,100.00
2022-10-02T23:52:03.334Z,100.00
2022-10-02T23:54:39.529Z,100.00
2022-10-02T23:57:29.790Z,100.00
